createdAt,value
2022-11-02T00:00:56.509Z,7.40
2022-11-02T00:03:26.473Z,8.40
2022-11-02T00:05:56.102Z,8.95
2022-11-02T00:08:25.943Z,8.95
2022-11-02T00:10:55.205Z,7.85
2022-11-02T00:13:25.152Z,7.40
2022-11-02T00:15:54.448Z,7.32
2022-11-02T00:18:21.895Z,7.95
2022-11-02T00:20:49.141Z,7.93
2022-11-02T00:23:18.401Z,8.05
2022-11-02T00:25:47.812Z,9.45
2022-11-02T00:28:15.211Z,8.88
2022-11-02T00:30:45.299Z,8.82
2022-11-02T00:33:13.944Z,8.15
2022-11-02T00:35:43.920Z,9.05
2022-11-02T00:38:10.799Z,7.57
2022-11-02T00:40:40.250Z,7.72
2022-11-02T00:43:07.346Z,11.77
2022-11-02T00:45:35.407Z,11.23
2022-11-02T00:48:03.215Z,12.80
2022-11-02T00:50:30.424Z,12.57
2022-11-02T00:52:57.748Z,7.45
2022-11-02T00:55:28.297Z,6.30
2022-11-02T00:58:00.411Z,7.28
2022-11-02T01:00:27.609Z,7.75
2022-11-02T01:02:57.721Z,7.43
2022-11-02T01:05:26.975Z,9.43
2022-11-02T01:07:56.546Z,8.05
2022-11-02T01:10:26.156Z,6.70
2022-11-02T01:12:54.599Z,7.47
2022-11-02T01:15:24.929Z,7.97
2022-11-02T01:17:51.856Z,6.85
2022-11-02T01:20:18.781Z,7.93
2022-11-02T01:22:47.275Z,7.43
2022-11-02T01:25:14.330Z,7.90
2022-11-02T01:27:42.222Z,10.10
2022-11-02T01:30:12.418Z,7.18
2022-11-02T01:32:41.024Z,8.77
2022-11-02T01:35:08.307Z,7.05
2022-11-02T01:37:35.328Z,8.60
2022-11-02T01:40:03.018Z,7.50
2022-11-02T01:42:32.211Z,8.90
2022-11-02T01:45:02.174Z,8.60
2022-11-02T01:47:51.980Z,7.13
2022-11-02T01:50:27.500Z,7.28
2022-11-02T01:52:57.101Z,9.30
2022-11-02T01:55:35.591Z,9.23
2022-11-02T01:58:08.357Z,7.07
2022-11-02T02:00:39.553Z,8.33
2022-11-02T02:03:17.927Z,8.90
2022-11-02T02:05:55.151Z,10.95
2022-11-02T02:08:25.291Z,10.57
2022-11-02T02:10:56.888Z,6.57
2022-11-02T02:13:28.027Z,7.65
2022-11-02T02:16:06.911Z,8.88
2022-11-02T02:18:43.361Z,8.40
2022-11-02T02:21:39.214Z,5.57
2022-11-02T02:24:41.729Z,8.85
2022-11-02T02:27:14.159Z,8.48
2022-11-02T02:30:03.209Z,8.18
2022-11-02T02:32:45.954Z,7.10
2022-11-02T02:35:15.990Z,7.07
2022-11-02T02:37:57.475Z,6.47
2022-11-02T02:40:36.868Z,8.38
2022-11-02T02:43:06.839Z,7.47
2022-11-02T02:45:46.106Z,6.30
2022-11-02T02:48:24.849Z,8.05
2022-11-02T02:51:00.680Z,8.63
2022-11-02T02:53:36.253Z,7.63
2022-11-02T02:56:10.825Z,8.90
2022-11-02T02:58:52.946Z,7.45
2022-11-02T03:01:20.316Z,8.88
2022-11-02T03:03:47.591Z,6.40
2022-11-02T03:06:21.281Z,7.00
2022-11-02T03:09:10.483Z,8.30
2022-11-02T03:12:00.326Z,7.00
2022-11-02T03:14:38.840Z,7.97
2022-11-02T03:17:11.929Z,6.65
2022-11-02T03:19:49.887Z,5.87
2022-11-02T03:22:30.676Z,6.93
2022-11-02T03:25:12.790Z,9.15
2022-11-02T03:27:53.480Z,6.72
2022-11-02T03:30:28.129Z,7.97
2022-11-02T03:33:22.805Z,8.25
2022-11-02T03:36:12.984Z,9.00
2022-11-02T03:39:04.806Z,7.18
2022-11-02T03:41:35.652Z,9.20
2022-11-02T03:44:08.810Z,10.85
2022-11-02T03:46:40.496Z,8.68
2022-11-02T03:49:14.351Z,9.10
2022-11-02T03:51:44.056Z,7.53
2022-11-02T03:54:27.102Z,7.10
2022-11-02T03:56:59.467Z,8.02
2022-11-02T03:59:31.652Z,7.65
2022-11-02T04:02:25.024Z,9.88
2022-11-02T04:04:53.940Z,9.00
2022-11-02T04:07:27.682Z,8.27
2022-11-02T04:09:54.695Z,9.55
2022-11-02T04:12:40.261Z,8.23
2022-11-02T04:15:09.028Z,10.07
2022-11-02T04:17:55.947Z,7.22
2022-11-02T04:20:22.988Z,8.85
2022-11-02T04:23:10.183Z,7.78
2022-11-02T04:25:37.303Z,10.70
2022-11-02T04:28:14.669Z,8.75
2022-11-02T04:30:58.795Z,7.72
2022-11-02T04:33:34.889Z,9.20
2022-11-02T04:36:16.288Z,6.57
2022-11-02T04:38:48.627Z,8.15
2022-11-02T04:41:42.218Z,9.32
2022-11-02T04:44:29.256Z,8.10
2022-11-02T04:47:04.966Z,12.88
2022-11-02T04:49:35.796Z,9.33
2022-11-02T04:52:05.921Z,9.65
2022-11-02T04:54:35.138Z,10.52
2022-11-02T04:57:04.922Z,7.30
2022-11-02T04:59:33.251Z,8.75
2022-11-02T05:02:00.288Z,7.50
2022-11-02T05:04:27.985Z,7.03
2022-11-02T05:07:01.080Z,9.07
2022-11-02T05:09:28.932Z,9.27
2022-11-02T05:11:58.934Z,7.85
2022-11-02T05:14:26.096Z,8.90
2022-11-02T05:16:53.107Z,8.68
2022-11-02T05:19:20.144Z,9.32
2022-11-02T05:21:48.113Z,8.23
2022-11-02T05:24:15.212Z,11.40
2022-11-02T05:26:42.719Z,8.43
2022-11-02T05:29:12.478Z,7.05
2022-11-02T05:31:39.550Z,9.13
2022-11-02T05:34:06.989Z,8.13
2022-11-02T05:36:33.951Z,9.38
2022-11-02T05:39:01.549Z,9.48
2022-11-02T05:41:31.289Z,8.57
2022-11-02T05:44:02.511Z,9.20
2022-11-02T05:46:41.433Z,7.85
2022-11-02T05:49:08.777Z,10.98
2022-11-02T05:51:35.978Z,7.07
2022-11-02T05:54:03.227Z,7.15
2022-11-02T05:56:30.493Z,7.75
2022-11-02T05:58:57.743Z,7.75
2022-11-02T06:01:25.244Z,8.15
2022-11-02T06:03:53.883Z,9.13
2022-11-02T06:06:21.966Z,10.68
2022-11-02T06:08:53.525Z,11.85
2022-11-02T06:11:21.140Z,12.90
2022-11-02T06:13:50.988Z,9.25
2022-11-02T06:16:23.064Z,8.90
2022-11-02T06:18:51.070Z,8.55
2022-11-02T06:21:18.907Z,10.85
2022-11-02T06:23:49.308Z,7.57
2022-11-02T06:26:17.116Z,7.88
2022-11-02T06:28:44.264Z,8.98
2022-11-02T06:31:12.448Z,7.65
2022-11-02T06:33:39.551Z,8.25
2022-11-02T06:36:08.065Z,9.85
2022-11-02T06:38:35.238Z,8.32
2022-11-02T06:41:05.832Z,10.40
2022-11-02T06:43:36.928Z,9.45
2022-11-02T06:46:04.799Z,11.75
2022-11-02T06:48:35.281Z,9.65
2022-11-02T06:51:04.684Z,8.45
2022-11-02T06:53:32.169Z,9.23
2022-11-02T06:56:00.147Z,11.20
2022-11-02T06:58:27.607Z,8.63
2022-11-02T07:01:10.075Z,9.63
2022-11-02T07:03:37.362Z,10.93
2022-11-02T07:06:11.249Z,11.98
2022-11-02T07:09:21.510Z,8.65
2022-11-02T07:11:48.475Z,9.23
2022-11-02T07:14:15.270Z,11.30
2022-11-02T07:16:42.401Z,10.20
2022-11-02T07:19:09.598Z,10.15
2022-11-02T07:21:36.601Z,8.50
2022-11-02T07:24:03.744Z,12.52
2022-11-02T07:26:30.907Z,10.85
2022-11-02T07:28:59.379Z,10.52
2022-11-02T07:31:26.669Z,10.27
2022-11-02T07:33:53.609Z,11.98
2022-11-02T07:36:20.645Z,11.13
2022-11-02T07:38:47.567Z,10.88
2022-11-02T07:41:14.536Z,9.25
2022-11-02T07:43:43.256Z,11.50
2022-11-02T07:46:40.284Z,10.43
2022-11-02T07:49:07.193Z,9.60
2022-11-02T07:51:34.128Z,9.85
2022-11-02T07:54:01.635Z,10.93
2022-11-02T07:56:28.788Z,10.35
2022-11-02T07:58:55.712Z,11.10
2022-11-02T08:01:23.270Z,10.77
2022-11-02T08:03:50.433Z,11.07
2022-11-02T08:06:17.625Z,15.10
2022-11-02T08:08:44.606Z,13.77
2022-11-02T08:11:11.597Z,12.07
2022-11-02T08:13:39.114Z,11.15
2022-11-02T08:16:06.275Z,10.77
2022-11-02T08:18:33.668Z,10.77
2022-11-02T08:21:01.000Z,10.88
2022-11-02T08:23:28.057Z,12.32
2022-11-02T08:25:58.375Z,13.15
2022-11-02T08:28:40.316Z,11.23
2022-11-02T08:31:12.483Z,11.93
2022-11-02T08:33:39.493Z,13.27
2022-11-02T08:36:06.754Z,12.35
2022-11-02T08:38:33.767Z,10.40
2022-11-02T08:41:01.353Z,15.65
2022-11-02T08:43:28.628Z,9.65
2022-11-02T08:46:16.775Z,11.57
2022-11-02T08:48:44.186Z,11.45
2022-11-02T08:51:11.335Z,10.65
2022-11-02T08:53:38.370Z,14.68
2022-11-02T08:56:05.659Z,17.10
2022-11-02T08:58:32.676Z,11.07
2022-11-02T09:00:59.963Z,11.05
2022-11-02T09:03:28.394Z,9.50
2022-11-02T09:06:00.776Z,10.95
2022-11-02T09:08:28.435Z,9.70
2022-11-02T09:11:00.453Z,10.75
2022-11-02T09:13:28.582Z,17.58
2022-11-02T09:15:57.983Z,11.18
2022-11-02T09:18:25.210Z,12.57
2022-11-02T09:20:52.252Z,13.85
2022-11-02T09:23:20.860Z,11.93
2022-11-02T09:25:48.752Z,10.13
2022-11-02T09:28:15.952Z,9.07
2022-11-02T09:30:43.392Z,11.13
2022-11-02T09:33:10.568Z,14.68
2022-11-02T09:35:44.724Z,11.15
2022-11-02T09:38:12.691Z,11.98
2022-11-02T09:40:59.884Z,12.45
2022-11-02T09:43:49.519Z,10.68
2022-11-02T09:46:22.103Z,13.20
2022-11-02T09:49:03.596Z,9.55
2022-11-02T09:51:42.079Z,10.90
2022-11-02T09:54:18.274Z,10.85
2022-11-02T09:56:46.247Z,12.93
2022-11-02T09:59:19.920Z,12.98
2022-11-02T10:02:15.024Z,12.30
2022-11-02T10:05:24.246Z,13.57
2022-11-02T10:08:15.887Z,11.10
2022-11-02T10:11:08.080Z,12.20
2022-11-02T10:13:44.983Z,13.27
2022-11-02T10:16:44.850Z,11.88
2022-11-02T10:19:19.931Z,10.85
2022-11-02T10:21:50.146Z,13.60
2022-11-02T10:24:27.953Z,17.70
2022-11-02T10:26:59.305Z,11.57
2022-11-02T10:29:53.792Z,11.02
2022-11-02T10:32:28.825Z,12.90
2022-11-02T10:34:59.217Z,11.98
2022-11-02T10:38:15.279Z,9.75
2022-11-02T10:40:48.851Z,11.10
2022-11-02T10:43:52.391Z,10.70
2022-11-02T10:46:41.818Z,13.18
2022-11-02T10:49:45.780Z,9.95
2022-11-02T10:52:18.513Z,12.88
2022-11-02T10:54:45.574Z,10.80
2022-11-02T10:57:14.250Z,15.50
2022-11-02T10:59:41.414Z,14.90
2022-11-02T11:02:15.285Z,11.40
2022-11-02T11:07:17.995Z,10.02
2022-11-02T11:09:55.287Z,11.18
2022-11-02T11:12:30.701Z,12.52
2022-11-02T11:20:40.030Z,9.75
2022-11-02T11:23:10.496Z,10.35
2022-11-02T11:25:37.804Z,10.75
2022-11-02T11:28:22.731Z,9.88
2022-11-02T11:31:11.536Z,8.70
2022-11-02T11:33:47.912Z,13.57
2022-11-02T11:36:33.250Z,9.88
2022-11-02T11:39:08.335Z,9.57
2022-11-02T11:41:40.982Z,10.23
2022-11-02T11:44:14.097Z,9.45
2022-11-02T11:46:46.916Z,10.00
2022-11-02T11:50:07.127Z,12.77
2022-11-02T11:52:20.766Z,9.70
2022-11-02T11:54:57.904Z,10.38
2022-11-02T11:57:28.417Z,9.75
2022-11-02T11:59:59.086Z,10.57
2022-11-02T12:02:29.303Z,13.25
2022-11-02T12:05:12.936Z,9.80
2022-11-02T12:07:45.681Z,11.80
2022-11-02T12:10:15.629Z,10.15
2022-11-02T12:12:57.827Z,9.15
2022-11-02T12:15:31.380Z,9.50
2022-11-02T12:18:14.649Z,13.18
2022-11-02T12:20:47.649Z,11.60
2022-11-02T12:23:53.635Z,10.73
2022-11-02T12:26:57.787Z,10.77
2022-11-02T12:29:39.802Z,11.43
2022-11-02T12:32:30.024Z,10.23
2022-11-02T12:35:35.044Z,10.73
2022-11-02T12:38:28.120Z,10.48
2022-11-02T12:41:05.427Z,10.15
2022-11-02T12:43:49.061Z,10.80
2022-11-02T12:46:49.261Z,12.20
2022-11-02T12:49:45.812Z,13.85
2022-11-02T12:52:31.243Z,10.75
2022-11-02T12:55:01.956Z,9.95
2022-11-02T12:57:35.131Z,11.20
2022-11-02T13:00:08.000Z,13.20
2022-11-02T13:03:15.997Z,13.15
2022-11-02T13:05:50.622Z,10.98
2022-11-02T13:08:22.192Z,12.68
2022-11-02T13:10:56.690Z,12.88
2022-11-02T13:13:40.061Z,11.85
2022-11-02T13:16:10.489Z,12.23
2022-11-02T13:18:52.038Z,12.13
2022-11-02T13:21:28.208Z,11.52
2022-11-02T13:23:59.470Z,12.23
2022-11-02T13:26:38.048Z,12.75
2022-11-02T13:29:09.669Z,13.18
2022-11-02T13:31:41.811Z,11.75
2022-11-02T13:34:16.373Z,16.92
2022-11-02T13:36:46.451Z,15.75
2022-11-02T13:39:20.636Z,11.32
2022-11-02T13:41:48.503Z,12.73
2022-11-02T13:44:28.241Z,11.82
2022-11-02T13:47:13.469Z,11.48
2022-11-02T13:49:49.198Z,11.30
2022-11-02T13:52:39.484Z,12.82
2022-11-02T13:55:14.040Z,10.02
2022-11-02T13:57:47.886Z,11.70
2022-11-02T14:00:24.016Z,13.82
2022-11-02T14:03:17.096Z,11.80
2022-11-02T14:05:55.853Z,11.10
2022-11-02T14:08:36.132Z,14.60
2022-11-02T14:11:23.248Z,14.82
2022-11-02T14:13:58.899Z,10.88
2022-11-02T14:16:51.075Z,15.18
2022-11-02T14:19:20.224Z,14.25
2022-11-02T14:21:50.863Z,11.32
2022-11-02T14:24:33.065Z,11.50
2022-11-02T14:27:03.960Z,10.80
2022-11-02T14:29:45.095Z,9.55
2022-11-02T14:32:21.609Z,11.43
2022-11-02T14:35:14.676Z,14.10
2022-11-02T14:38:00.991Z,11.20
2022-11-02T14:40:47.536Z,10.55
2022-11-02T14:43:30.581Z,17.25
2022-11-02T14:46:12.274Z,11.70
2022-11-02T14:48:45.162Z,10.90
2022-11-02T14:51:21.013Z,11.95
2022-11-02T14:53:59.111Z,11.05
2022-11-02T14:56:56.748Z,12.77
2022-11-02T14:59:38.105Z,10.45
2022-11-02T15:02:23.961Z,13.02
2022-11-02T15:04:54.537Z,9.23
2022-11-02T15:08:08.050Z,11.23
2022-11-02T15:10:42.080Z,12.98
2022-11-02T15:13:24.985Z,9.05
2022-11-02T15:15:52.066Z,11.48
2022-11-02T15:18:31.359Z,12.65
2022-11-02T15:21:10.689Z,8.88
2022-11-02T15:24:17.578Z,11.65
2022-11-02T15:26:49.557Z,13.25
2022-11-02T15:29:22.998Z,9.05
2022-11-02T15:32:01.347Z,11.27
2022-11-02T15:34:44.944Z,11.23
2022-11-02T15:37:56.441Z,11.90
2022-11-02T15:41:02.879Z,12.75
2022-11-02T15:44:09.277Z,11.05
2022-11-02T15:46:55.195Z,13.07
2022-11-02T15:50:01.765Z,12.18
2022-11-02T15:53:21.819Z,12.23
2022-11-02T15:55:53.906Z,12.23
2022-11-02T15:58:58.929Z,11.73
2022-11-02T16:01:28.227Z,11.32
2022-11-02T16:04:02.568Z,9.80
2022-11-02T16:06:33.391Z,11.85
2022-11-02T16:09:02.425Z,13.20
2022-11-02T16:11:29.681Z,13.10
2022-11-02T16:14:18.184Z,12.35
2022-11-02T16:16:50.391Z,10.45
2022-11-02T16:19:20.525Z,10.50
2022-11-02T16:21:50.253Z,11.27
2022-11-02T16:24:18.371Z,9.90
2022-11-02T16:26:46.842Z,10.52
2022-11-02T16:29:30.550Z,11.68
2022-11-02T16:31:58.222Z,10.57
2022-11-02T16:34:30.953Z,15.75
2022-11-02T16:37:10.033Z,11.50
2022-11-02T16:39:43.785Z,9.77
2022-11-02T16:42:22.373Z,10.77
2022-11-02T16:44:56.693Z,12.80
2022-11-02T16:47:38.030Z,10.65
2022-11-02T16:50:19.476Z,12.73
2022-11-02T16:52:57.930Z,13.63
2022-11-02T16:55:41.851Z,12.90
2022-11-02T16:58:23.583Z,11.80
2022-11-02T17:01:05.583Z,10.40
2022-11-02T17:03:34.970Z,11.43
2022-11-02T17:06:06.280Z,13.40
2022-11-02T17:08:40.303Z,12.13
2022-11-02T17:11:17.150Z,11.50
2022-11-02T17:13:51.026Z,12.63
2022-11-02T17:16:19.547Z,10.95
2022-11-02T17:18:47.196Z,13.88
2022-11-02T17:21:14.274Z,12.77
2022-11-02T17:23:49.707Z,10.85
2022-11-02T17:26:23.470Z,10.95
2022-11-02T17:28:54.598Z,12.32
2022-11-02T17:31:25.397Z,10.80
2022-11-02T17:33:55.014Z,12.07
2022-11-02T17:36:27.979Z,10.40
2022-11-02T17:38:56.152Z,12.18
2022-11-02T17:41:55.387Z,11.13
2022-11-02T17:44:22.506Z,11.25
2022-11-02T17:46:49.529Z,10.10
2022-11-02T17:49:16.736Z,9.15
2022-11-02T17:51:43.951Z,11.38
2022-11-02T17:54:14.878Z,10.40
2022-11-02T17:56:44.938Z,9.93
2022-11-02T17:59:12.967Z,10.75
2022-11-02T18:01:40.214Z,11.95
2022-11-02T18:04:07.428Z,9.68
2022-11-02T18:06:34.515Z,9.93
2022-11-02T18:09:19.456Z,10.48
2022-11-02T18:11:46.986Z,9.68
2022-11-02T18:14:17.033Z,10.02
2022-11-02T18:16:44.905Z,9.45
2022-11-02T18:19:12.637Z,8.68
2022-11-02T18:21:39.757Z,11.23
2022-11-02T18:24:07.386Z,11.93
2022-11-02T18:26:35.899Z,9.65
2022-11-02T18:29:13.427Z,10.48
2022-11-02T18:31:41.036Z,9.77
2022-11-02T18:34:08.292Z,11.30
2022-11-02T18:36:39.454Z,12.15
2022-11-02T18:39:08.261Z,11.57
2022-11-02T18:41:37.077Z,10.45
2022-11-02T18:44:14.967Z,8.10
2022-11-02T18:46:49.215Z,10.48
2022-11-02T18:52:02.185Z,9.70
2022-11-02T18:54:35.439Z,11.13
2022-11-02T18:57:02.576Z,7.72
2022-11-02T18:59:29.723Z,9.35
2022-11-02T19:01:56.727Z,12.98
2022-11-02T19:04:23.920Z,11.38
2022-11-02T19:07:11.274Z,10.77
2022-11-02T19:09:42.683Z,8.45
2022-11-02T19:12:23.939Z,8.77
2022-11-02T19:14:53.619Z,9.88
2022-11-02T19:17:25.007Z,9.45
2022-11-02T19:19:52.396Z,12.80
2022-11-02T19:22:24.591Z,8.38
2022-11-02T19:24:52.649Z,8.10
2022-11-02T19:27:22.182Z,10.40
2022-11-02T19:29:49.603Z,8.15
2022-11-02T19:32:17.550Z,9.40
2022-11-02T19:34:44.722Z,9.90
2022-11-02T19:37:12.610Z,8.15
2022-11-02T19:39:39.663Z,9.88
2022-11-02T19:42:07.685Z,7.57
2022-11-02T19:44:39.653Z,10.25
2022-11-02T19:47:09.927Z,9.63
2022-11-02T19:49:38.428Z,9.02
2022-11-02T19:52:06.302Z,8.65
2022-11-02T19:54:33.407Z,8.60
2022-11-02T19:57:00.342Z,8.82
2022-11-02T19:59:28.766Z,9.50
2022-11-02T20:01:55.762Z,8.40
2022-11-02T20:04:22.690Z,8.30
2022-11-02T20:06:50.466Z,8.32
2022-11-02T20:09:19.727Z,9.15
2022-11-02T20:11:49.595Z,10.52
2022-11-02T20:14:17.755Z,11.02
2022-11-02T20:17:04.116Z,8.98
2022-11-02T20:19:38.902Z,8.93
2022-11-02T20:22:06.462Z,7.03
2022-11-02T20:24:33.598Z,7.60
2022-11-02T20:27:03.050Z,8.57
2022-11-02T20:29:33.304Z,9.23
2022-11-02T20:32:00.677Z,8.18
2022-11-02T20:34:28.009Z,8.80
2022-11-02T20:36:55.337Z,8.20
2022-11-02T20:39:22.517Z,7.57
2022-11-02T20:41:55.885Z,10.27
2022-11-02T20:44:24.163Z,9.30
2022-11-02T20:46:53.296Z,8.25
2022-11-02T20:49:36.384Z,11.05
2022-11-02T20:52:10.128Z,9.13
2022-11-02T20:54:37.189Z,8.18
2022-11-02T20:57:04.379Z,7.55
2022-11-02T20:59:31.513Z,7.75
2022-11-02T21:01:58.561Z,7.35
2022-11-02T21:04:25.685Z,6.95
2022-11-02T21:06:52.712Z,8.10
2022-11-02T21:09:19.999Z,7.68
2022-11-02T21:12:16.029Z,9.30
2022-11-02T21:14:42.956Z,13.00
2022-11-02T21:17:11.783Z,7.20
2022-11-02T21:19:38.689Z,7.45
2022-11-02T21:22:05.651Z,8.20
2022-11-02T21:24:32.696Z,8.18
2022-11-02T21:26:59.574Z,8.70
2022-11-02T21:29:26.523Z,8.50
2022-11-02T21:31:53.507Z,6.75
2022-11-02T21:34:20.966Z,8.95
2022-11-02T21:36:48.887Z,8.23
2022-11-02T21:39:19.083Z,6.85
2022-11-02T21:41:46.998Z,7.90
2022-11-02T21:44:17.091Z,7.03
2022-11-02T21:46:47.087Z,7.28
2022-11-02T21:49:14.261Z,5.90
2022-11-02T21:51:42.717Z,8.82
2022-11-02T21:54:09.926Z,7.10
2022-11-02T21:56:41.549Z,7.97
2022-11-02T21:59:09.680Z,8.88
2022-11-02T22:01:47.384Z,6.85
2022-11-02T22:04:19.510Z,6.82
2022-11-02T22:06:46.603Z,7.20
2022-11-02T22:09:15.393Z,8.40
2022-11-02T22:11:44.032Z,7.20
2022-11-02T22:14:12.004Z,6.53
2022-11-02T22:16:41.731Z,7.72
2022-11-02T22:19:13.668Z,5.55
2022-11-02T22:21:45.047Z,5.85
2022-11-02T22:24:12.877Z,8.15
2022-11-02T22:26:40.951Z,4.93
2022-11-02T22:29:08.566Z,7.70
2022-11-02T22:31:39.151Z,6.90
2022-11-02T22:34:09.412Z,5.47
2022-11-02T22:36:38.418Z,5.65
2022-11-02T22:39:07.569Z,7.40
2022-11-02T22:41:39.566Z,6.15
2022-11-02T22:44:13.852Z,6.57
2022-11-02T22:46:50.691Z,4.60
2022-11-02T22:49:19.956Z,5.45
2022-11-02T22:51:49.728Z,6.57
2022-11-02T22:54:19.568Z,5.72
2022-11-02T22:56:48.530Z,5.93
2022-11-02T22:59:18.993Z,5.68
2022-11-02T23:01:46.164Z,7.07
2022-11-02T23:04:13.395Z,6.90
2022-11-02T23:06:40.641Z,5.85
2022-11-02T23:09:10.835Z,7.07
2022-11-02T23:11:37.898Z,6.22
2022-11-02T23:14:14.500Z,7.00
2022-11-02T23:16:43.871Z,5.53
2022-11-02T23:19:29.992Z,4.90
2022-11-02T23:22:19.684Z,5.55
2022-11-02T23:25:13.693Z,5.15
2022-11-02T23:28:03.112Z,6.43
2022-11-02T23:30:52.377Z,5.85
2022-11-02T23:33:20.109Z,5.20
2022-11-02T23:36:05.506Z,8.80
2022-11-02T23:38:51.456Z,7.57
2022-11-02T23:41:19.622Z,6.13
2022-11-02T23:43:47.728Z,7.00
2022-11-02T23:46:15.359Z,5.38
2022-11-02T23:48:42.714Z,7.00
2022-11-02T23:51:29.107Z,5.68
2022-11-02T23:54:15.083Z,5.90
2022-11-02T23:56:44.877Z,5.47
2022-11-02T23:59:16.788Z,6.10
